sensor_id;sensor_type;location;lat;lon;timestamp;P1;durP1;ratioP1;P2;durP2;ratioP2
10122;SDS011;5101;49.038;8.710;2023-09-18T00:00:37;2.00;;;1.80;;
10122;SDS011;5101;49.038;8.710;2023-09-18T00:03:03;1.70;;;1.60;;
10122;SDS011;5101;49.038;8.710;2023-09-18T00:05:28;2.55;;;1.55;;
10122;SDS011;5101;49.038;8.710;2023-09-18T00:07:54;2.17;;;1.98;;
10122;SDS011;5101;49.038;8.710;2023-09-18T00:10:20;2.60;;;1.80;;
10122;SDS011;5101;49.038;8.710;2023-09-18T00:12:46;2.42;;;1.65;;
10122;SDS011;5101;49.038;8.710;2023-09-18T00:15:11;2.00;;;1.77;;
10122;SDS011;5101;49.038;8.710;2023-09-18T00:17:37;2.85;;;1.85;;
10122;SDS011;5101;49.038;8.710;2023-09-18T00:20:02;3.72;;;1.60;;
10122;SDS011;5101;49.038;8.710;2023-09-18T00:22:31;2.65;;;1.70;;
10122;SDS011;5101;49.038;8.710;2023-09-18T00:24:57;2.03;;;1.67;;
10122;SDS011;5101;49.038;8.710;2023-09-18T00:27:23;2.92;;;2.05;;
10122;SDS011;5101;49.038;8.710;2023-09-18T00:29:48;2.33;;;1.70;;
10122;SDS011;5101;49.038;8.710;2023-09-18T00:32:14;2.97;;;1.70;;
10122;SDS011;5101;49.038;8.710;2023-09-18T00:34:39;2.85;;;1.80;;
10122;SDS011;5101;49.038;8.710;2023-09-18T00:37:05;2.83;;;1.90;;
10122;SDS011;5101;49.038;8.710;2023-09-18T00:39:30;2.63;;;1.83;;
10122;SDS011;5101;49.038;8.710;2023-09-18T00:41:56;2.08;;;1.85;;
10122;SDS011;5101;49.038;8.710;2023-09-18T00:44:22;3.03;;;2.03;;
10122;SDS011;5101;49.038;8.710;2023-09-18T00:46:51;1.60;;;1.50;;
10122;SDS011;5101;49.038;8.710;2023-09-18T00:49:19;2.35;;;1.77;;
10122;SDS011;5101;49.038;8.710;2023-09-18T00:51:46;4.00;;;1.90;;
10122;SDS011;5101;49.038;8.710;2023-09-18T00:54:12;2.13;;;1.88;;
10122;SDS011;5101;49.038;8.710;2023-09-18T00:56:41;2.22;;;1.70;;
10122;SDS011;5101;49.038;8.710;2023-09-18T00:59:07;2.70;;;1.80;;
10122;SDS011;5101;49.038;8.710;2023-09-18T01:01:33;2.80;;;2.13;;
10122;SDS011;5101;49.038;8.710;2023-09-18T01:03:59;2.35;;;1.77;;
10122;SDS011;5101;49.038;8.710;2023-09-18T01:06:24;3.45;;;1.98;;
10122;SDS011;5101;49.038;8.710;2023-09-18T01:08:53;1.75;;;1.60;;
10122;SDS011;5101;49.038;8.710;2023-09-18T01:11:22;3.38;;;1.83;;
10122;SDS011;5101;49.038;8.710;2023-09-18T01:16:39;2.00;;;1.40;;
10122;SDS011;5101;49.038;8.710;2023-09-18T01:19:10;4.70;;;1.88;;
10122;SDS011;5101;49.038;8.710;2023-09-18T01:21:36;2.97;;;1.73;;
10122;SDS011;5101;49.038;8.710;2023-09-18T01:24:02;2.63;;;2.00;;
10122;SDS011;5101;49.038;8.710;2023-09-18T01:26:28;2.85;;;1.65;;
10122;SDS011;5101;49.038;8.710;2023-09-18T01:28:53;2.70;;;1.90;;
10122;SDS011;5101;49.038;8.710;2023-09-18T01:31:19;2.00;;;1.80;;
10122;SDS011;5101;49.038;8.710;2023-09-18T01:33:45;1.98;;;1.75;;
10122;SDS011;5101;49.038;8.710;2023-09-18T01:36:12;1.92;;;1.55;;
10122;SDS011;5101;49.038;8.710;2023-09-18T01:38:39;2.80;;;1.92;;
10122;SDS011;5101;49.038;8.710;2023-09-18T01:41:05;4.05;;;1.95;;
10122;SDS011;5101;49.038;8.710;2023-09-18T01:43:31;1.80;;;1.70;;
10122;SDS011;5101;49.038;8.710;2023-09-18T01:45:57;2.35;;;1.73;;
10122;SDS011;5101;49.038;8.710;2023-09-18T01:48:22;1.83;;;1.73;;
10122;SDS011;5101;49.038;8.710;2023-09-18T01:50:48;3.03;;;1.90;;
10122;SDS011;5101;49.038;8.710;2023-09-18T01:53:13;2.10;;;1.90;;
10122;SDS011;5101;49.038;8.710;2023-09-18T01:55:39;2.58;;;1.80;;
10122;SDS011;5101;49.038;8.710;2023-09-18T01:58:04;2.47;;;2.03;;
10122;SDS011;5101;49.038;8.710;2023-09-18T02:00:30;2.55;;;1.73;;
10122;SDS011;5101;49.038;8.710;2023-09-18T02:02:55;7.50;;;2.65;;
10122;SDS011;5101;49.038;8.710;2023-09-18T02:05:21;2.92;;;2.45;;
10122;SDS011;5101;49.038;8.710;2023-09-18T02:07:47;4.47;;;2.35;;
10122;SDS011;5101;49.038;8.710;2023-09-18T02:10:12;6.22;;;2.70;;
10122;SDS011;5101;49.038;8.710;2023-09-18T02:12:38;4.30;;;2.38;;
10122;SDS011;5101;49.038;8.710;2023-09-18T02:15:04;3.67;;;2.33;;
10122;SDS011;5101;49.038;8.710;2023-09-18T02:17:31;3.50;;;2.90;;
10122;SDS011;5101;49.038;8.710;2023-09-18T02:19:57;5.45;;;2.72;;
10122;SDS011;5101;49.038;8.710;2023-09-18T02:22:23;4.82;;;2.53;;
10122;SDS011;5101;49.038;8.710;2023-09-18T02:24:48;5.28;;;2.53;;
10122;SDS011;5101;49.038;8.710;2023-09-18T02:27:14;5.18;;;2.60;;
10122;SDS011;5101;49.038;8.710;2023-09-18T02:29:39;5.68;;;2.80;;
10122;SDS011;5101;49.038;8.710;2023-09-18T02:32:05;3.88;;;2.92;;
10122;SDS011;5101;49.038;8.710;2023-09-18T02:34:30;3.50;;;2.45;;
10122;SDS011;5101;49.038;8.710;2023-09-18T02:36:56;4.63;;;2.70;;
10122;SDS011;5101;49.038;8.710;2023-09-18T02:39:21;5.63;;;2.90;;
10122;SDS011;5101;49.038;8.710;2023-09-18T02:41:47;3.60;;;2.75;;
10122;SDS011;5101;49.038;8.710;2023-09-18T02:44:13;6.50;;;3.08;;
10122;SDS011;5101;49.038;8.710;2023-09-18T02:46:39;2.83;;;2.55;;
10122;SDS011;5101;49.038;8.710;2023-09-18T02:49:05;3.70;;;2.95;;
10122;SDS011;5101;49.038;8.710;2023-09-18T02:51:30;7.20;;;3.55;;
10122;SDS011;5101;49.038;8.710;2023-09-18T02:53:56;5.63;;;2.75;;
10122;SDS011;5101;49.038;8.710;2023-09-18T02:56:22;4.53;;;2.35;;
10122;SDS011;5101;49.038;8.710;2023-09-18T02:58:48;5.18;;;2.58;;
10122;SDS011;5101;49.038;8.710;2023-09-18T03:01:13;5.55;;;2.55;;
10122;SDS011;5101;49.038;8.710;2023-09-18T03:03:39;4.88;;;2.83;;
10122;SDS011;5101;49.038;8.710;2023-09-18T03:06:06;9.20;;;3.55;;
10122;SDS011;5101;49.038;8.710;2023-09-18T03:08:32;5.45;;;3.08;;
10122;SDS011;5101;49.038;8.710;2023-09-18T03:10:58;5.13;;;2.72;;
10122;SDS011;5101;49.038;8.710;2023-09-18T03:13:25;6.25;;;3.22;;
10122;SDS011;5101;49.038;8.710;2023-09-18T03:15:52;4.43;;;2.85;;
10122;SDS011;5101;49.038;8.710;2023-09-18T03:18:17;5.03;;;2.50;;
10122;SDS011;5101;49.038;8.710;2023-09-18T03:20:43;4.50;;;3.17;;
10122;SDS011;5101;49.038;8.710;2023-09-18T03:23:08;4.18;;;2.63;;
10122;SDS011;5101;49.038;8.710;2023-09-18T03:25:35;3.28;;;2.63;;
10122;SDS011;5101;49.038;8.710;2023-09-18T03:28:00;5.03;;;2.65;;
10122;SDS011;5101;49.038;8.710;2023-09-18T03:30:26;4.10;;;3.00;;
10122;SDS011;5101;49.038;8.710;2023-09-18T03:32:52;5.47;;;3.17;;
10122;SDS011;5101;49.038;8.710;2023-09-18T03:35:18;4.40;;;2.97;;
10122;SDS011;5101;49.038;8.710;2023-09-18T03:37:45;5.63;;;2.85;;
10122;SDS011;5101;49.038;8.710;2023-09-18T03:40:11;3.97;;;2.78;;
10122;SDS011;5101;49.038;8.710;2023-09-18T03:42:37;7.57;;;3.13;;
10122;SDS011;5101;49.038;8.710;2023-09-18T03:45:03;4.60;;;2.60;;
10122;SDS011;5101;49.038;8.710;2023-09-18T03:47:36;7.97;;;3.03;;
10122;SDS011;5101;49.038;8.710;2023-09-18T03:50:04;8.38;;;3.10;;
10122;SDS011;5101;49.038;8.710;2023-09-18T03:52:30;6.95;;;2.63;;
10122;SDS011;5101;49.038;8.710;2023-09-18T03:54:56;8.77;;;3.28;;
10122;SDS011;5101;49.038;8.710;2023-09-18T03:57:21;9.10;;;2.78;;
10122;SDS011;5101;49.038;8.710;2023-09-18T03:59:47;9.40;;;2.92;;
10122;SDS011;5101;49.038;8.710;2023-09-18T04:02:12;7.88;;;2.80;;
10122;SDS011;5101;49.038;8.710;2023-09-18T04:04:38;13.45;;;3.33;;
10122;SDS011;5101;49.038;8.710;2023-09-18T04:07:06;6.70;;;2.65;;
10122;SDS011;5101;49.038;8.710;2023-09-18T04:09:32;10.95;;;2.67;;
10122;SDS011;5101;49.038;8.710;2023-09-18T04:11:59;10.45;;;3.55;;
10122;SDS011;5101;49.038;8.710;2023-09-18T04:14:30;13.90;;;3.17;;
10122;SDS011;5101;49.038;8.710;2023-09-18T04:16:56;9.30;;;2.88;;
10122;SDS011;5101;49.038;8.710;2023-09-18T04:19:22;8.82;;;3.28;;
10122;SDS011;5101;49.038;8.710;2023-09-18T04:21:47;9.23;;;3.85;;
10122;SDS011;5101;49.038;8.710;2023-09-18T04:24:13;8.38;;;2.85;;
10122;SDS011;5101;49.038;8.710;2023-09-18T04:26:38;8.20;;;3.00;;
10122;SDS011;5101;49.038;8.710;2023-09-18T04:29:04;6.47;;;2.92;;
10122;SDS011;5101;49.038;8.710;2023-09-18T04:31:30;10.65;;;3.53;;
10122;SDS011;5101;49.038;8.710;2023-09-18T04:33:56;12.55;;;3.50;;
10122;SDS011;5101;49.038;8.710;2023-09-18T04:36:22;11.32;;;3.10;;
10122;SDS011;5101;49.038;8.710;2023-09-18T04:38:48;8.05;;;3.05;;
10122;SDS011;5101;49.038;8.710;2023-09-18T04:41:14;8.30;;;3.10;;
10122;SDS011;5101;49.038;8.710;2023-09-18T04:43:40;7.75;;;3.15;;
10122;SDS011;5101;49.038;8.710;2023-09-18T04:46:06;7.38;;;2.97;;
10122;SDS011;5101;49.038;8.710;2023-09-18T04:48:32;9.50;;;3.10;;
10122;SDS011;5101;49.038;8.710;2023-09-18T04:50:58;6.45;;;2.70;;
10122;SDS011;5101;49.038;8.710;2023-09-18T04:53:24;7.32;;;2.97;;
10122;SDS011;5101;49.038;8.710;2023-09-18T04:55:50;6.82;;;3.00;;
10122;SDS011;5101;49.038;8.710;2023-09-18T04:58:16;14.07;;;3.40;;
10122;SDS011;5101;49.038;8.710;2023-09-18T05:00:42;5.15;;;2.80;;
10122;SDS011;5101;49.038;8.710;2023-09-18T05:03:09;8.45;;;3.20;;
10122;SDS011;5101;49.038;8.710;2023-09-18T05:05:35;7.88;;;3.40;;
10122;SDS011;5101;49.038;8.710;2023-09-18T05:08:01;9.38;;;3.65;;
10122;SDS011;5101;49.038;8.710;2023-09-18T05:10:28;7.57;;;2.80;;
10122;SDS011;5101;49.038;8.710;2023-09-18T05:12:54;8.38;;;3.15;;
10122;SDS011;5101;49.038;8.710;2023-09-18T05:15:23;9.52;;;3.35;;
10122;SDS011;5101;49.038;8.710;2023-09-18T05:17:51;6.65;;;3.80;;
10122;SDS011;5101;49.038;8.710;2023-09-18T05:20:20;13.68;;;3.72;;
10122;SDS011;5101;49.038;8.710;2023-09-18T05:22:49;9.18;;;3.60;;
10122;SDS011;5101;49.038;8.710;2023-09-18T05:25:15;7.05;;;3.17;;
10122;SDS011;5101;49.038;8.710;2023-09-18T05:27:42;8.65;;;3.33;;
10122;SDS011;5101;49.038;8.710;2023-09-18T05:30:11;8.00;;;3.00;;
10122;SDS011;5101;49.038;8.710;2023-09-18T05:32:38;6.35;;;3.50;;
10122;SDS011;5101;49.038;8.710;2023-09-18T05:35:04;7.57;;;3.40;;
10122;SDS011;5101;49.038;8.710;2023-09-18T05:37:31;10.38;;;3.78;;
10122;SDS011;5101;49.038;8.710;2023-09-18T05:39:57;7.93;;;3.65;;
10122;SDS011;5101;49.038;8.710;2023-09-18T05:42:23;10.73;;;3.30;;
10122;SDS011;5101;49.038;8.710;2023-09-18T05:44:49;8.57;;;3.28;;
10122;SDS011;5101;49.038;8.710;2023-09-18T05:47:14;12.05;;;4.10;;
10122;SDS011;5101;49.038;8.710;2023-09-18T05:49:40;7.10;;;3.40;;
10122;SDS011;5101;49.038;8.710;2023-09-18T05:52:05;12.88;;;4.20;;
10122;SDS011;5101;49.038;8.710;2023-09-18T05:54:31;11.05;;;4.05;;
10122;SDS011;5101;49.038;8.710;2023-09-18T05:56:56;9.25;;;3.53;;
10122;SDS011;5101;49.038;8.710;2023-09-18T05:59:21;10.30;;;3.70;;
10122;SDS011;5101;49.038;8.710;2023-09-18T06:01:47;8.73;;;3.85;;
10122;SDS011;5101;49.038;8.710;2023-09-18T06:04:14;8.27;;;3.33;;
10122;SDS011;5101;49.038;8.710;2023-09-18T06:06:39;7.45;;;3.38;;
10122;SDS011;5101;49.038;8.710;2023-09-18T06:09:05;12.30;;;3.80;;
10122;SDS011;5101;49.038;8.710;2023-09-18T06:11:31;8.48;;;3.47;;
10122;SDS011;5101;49.038;8.710;2023-09-18T06:13:56;8.68;;;3.55;;
10122;SDS011;5101;49.038;8.710;2023-09-18T06:16:22;7.78;;;3.45;;
10122;SDS011;5101;49.038;8.710;2023-09-18T06:18:47;12.18;;;2.95;;
10122;SDS011;5101;49.038;8.710;2023-09-18T06:21:13;6.03;;;2.67;;
10122;SDS011;5101;49.038;8.710;2023-09-18T06:23:38;9.55;;;2.75;;
10122;SDS011;5101;49.038;8.710;2023-09-18T06:26:04;11.13;;;3.42;;
10122;SDS011;5101;49.038;8.710;2023-09-18T06:28:29;6.47;;;2.78;;
10122;SDS011;5101;49.038;8.710;2023-09-18T06:30:55;10.57;;;3.50;;
10122;SDS011;5101;49.038;8.710;2023-09-18T06:33:20;6.45;;;3.03;;
10122;SDS011;5101;49.038;8.710;2023-09-18T06:35:46;7.30;;;2.92;;
10122;SDS011;5101;49.038;8.710;2023-09-18T06:38:13;6.93;;;2.90;;
10122;SDS011;5101;49.038;8.710;2023-09-18T06:40:40;8.85;;;2.90;;
10122;SDS011;5101;49.038;8.710;2023-09-18T06:43:06;7.13;;;2.65;;
10122;SDS011;5101;49.038;8.710;2023-09-18T06:45:31;6.47;;;2.65;;
10122;SDS011;5101;49.038;8.710;2023-09-18T06:47:58;8.98;;;2.50;;
10122;SDS011;5101;49.038;8.710;2023-09-18T06:50:25;8.88;;;2.58;;
10122;SDS011;5101;49.038;8.710;2023-09-18T06:52:51;6.18;;;2.63;;
10122;SDS011;5101;49.038;8.710;2023-09-18T06:55:16;7.75;;;2.97;;
10122;SDS011;5101;49.038;8.710;2023-09-18T06:57:42;6.90;;;2.65;;
10122;SDS011;5101;49.038;8.710;2023-09-18T07:00:08;7.38;;;2.50;;
10122;SDS011;5101;49.038;8.710;2023-09-18T07:02:34;8.85;;;2.78;;
10122;SDS011;5101;49.038;8.710;2023-09-18T07:04:59;6.45;;;2.53;;
10122;SDS011;5101;49.038;8.710;2023-09-18T07:07:25;11.10;;;2.90;;
10122;SDS011;5101;49.038;8.710;2023-09-18T07:09:51;7.03;;;2.45;;
10122;SDS011;5101;49.038;8.710;2023-09-18T07:12:17;5.35;;;2.20;;
10122;SDS011;5101;49.038;8.710;2023-09-18T07:14:45;8.98;;;2.92;;
10122;SDS011;5101;49.038;8.710;2023-09-18T07:17:11;8.13;;;2.30;;
10122;SDS011;5101;49.038;8.710;2023-09-18T07:19:37;5.82;;;2.70;;
10122;SDS011;5101;49.038;8.710;2023-09-18T07:22:03;8.45;;;2.80;;
10122;SDS011;5101;49.038;8.710;2023-09-18T07:24:29;6.55;;;2.35;;
10122;SDS011;5101;49.038;8.710;2023-09-18T07:26:54;4.55;;;2.28;;
10122;SDS011;5101;49.038;8.710;2023-09-18T07:29:20;6.13;;;2.65;;
10122;SDS011;5101;49.038;8.710;2023-09-18T07:31:46;6.72;;;2.70;;
10122;SDS011;5101;49.038;8.710;2023-09-18T07:34:13;10.07;;;2.72;;
10122;SDS011;5101;49.038;8.710;2023-09-18T07:36:41;5.07;;;2.25;;
10122;SDS011;5101;49.038;8.710;2023-09-18T07:39:07;5.13;;;2.15;;
10122;SDS011;5101;49.038;8.710;2023-09-18T07:41:32;7.35;;;2.25;;
10122;SDS011;5101;49.038;8.710;2023-09-18T07:43:58;7.47;;;2.72;;
10122;SDS011;5101;49.038;8.710;2023-09-18T07:46:24;6.00;;;2.30;;
10122;SDS011;5101;49.038;8.710;2023-09-18T07:48:49;6.97;;;2.38;;
10122;SDS011;5101;49.038;8.710;2023-09-18T07:51:15;4.28;;;2.35;;
10122;SDS011;5101;49.038;8.710;2023-09-18T07:53:43;5.35;;;2.13;;
10122;SDS011;5101;49.038;8.710;2023-09-18T07:56:09;5.38;;;1.77;;
10122;SDS011;5101;49.038;8.710;2023-09-18T07:58:35;6.03;;;2.40;;
10122;SDS011;5101;49.038;8.710;2023-09-18T08:01:03;3.55;;;2.30;;
10122;SDS011;5101;49.038;8.710;2023-09-18T08:03:30;4.80;;;2.05;;
10122;SDS011;5101;49.038;8.710;2023-09-18T08:05:55;5.13;;;1.80;;
10122;SDS011;5101;49.038;8.710;2023-09-18T08:08:22;2.92;;;1.85;;
10122;SDS011;5101;49.038;8.710;2023-09-18T08:10:51;4.90;;;1.83;;
10122;SDS011;5101;49.038;8.710;2023-09-18T08:13:17;5.03;;;1.70;;
10122;SDS011;5101;49.038;8.710;2023-09-18T08:15:44;5.25;;;1.40;;
10122;SDS011;5101;49.038;8.710;2023-09-18T08:18:10;5.95;;;1.52;;
10122;SDS011;5101;49.038;8.710;2023-09-18T08:20:41;3.58;;;1.40;;
10122;SDS011;5101;49.038;8.710;2023-09-18T08:23:08;4.03;;;1.20;;
10122;SDS011;5101;49.038;8.710;2023-09-18T08:25:36;3.95;;;1.52;;
10122;SDS011;5101;49.038;8.710;2023-09-18T08:28:02;4.93;;;1.17;;
10122;SDS011;5101;49.038;8.710;2023-09-18T08:30:29;4.53;;;1.33;;
10122;SDS011;5101;49.038;8.710;2023-09-18T08:32:55;2.30;;;1.00;;
10122;SDS011;5101;49.038;8.710;2023-09-18T08:35:20;4.20;;;1.25;;
10122;SDS011;5101;49.038;8.710;2023-09-18T08:37:47;5.20;;;1.30;;
10122;SDS011;5101;49.038;8.710;2023-09-18T08:40:13;6.80;;;1.83;;
10122;SDS011;5101;49.038;8.710;2023-09-18T08:42:41;7.43;;;1.77;;
10122;SDS011;5101;49.038;8.710;2023-09-18T08:45:31;5.72;;;1.70;;
10122;SDS011;5101;49.038;8.710;2023-09-18T08:48:12;2.08;;;1.10;;
10122;SDS011;5101;49.038;8.710;2023-09-18T08:50:38;4.80;;;1.27;;
10122;SDS011;5101;49.038;8.710;2023-09-18T08:53:04;3.70;;;1.40;;
10122;SDS011;5101;49.038;8.710;2023-09-18T08:55:31;3.80;;;1.30;;
10122;SDS011;5101;49.038;8.710;2023-09-18T08:57:58;5.43;;;0.98;;
10122;SDS011;5101;49.038;8.710;2023-09-18T09:00:25;4.45;;;1.02;;
10122;SDS011;5101;49.038;8.710;2023-09-18T09:02:51;7.32;;;1.67;;
10122;SDS011;5101;49.038;8.710;2023-09-18T09:05:19;7.63;;;1.10;;
10122;SDS011;5101;49.038;8.710;2023-09-18T09:07:46;2.35;;;0.90;;
10122;SDS011;5101;49.038;8.710;2023-09-18T09:10:11;2.70;;;0.90;;
10122;SDS011;5101;49.038;8.710;2023-09-18T09:15:32;5.38;;;0.90;;
10122;SDS011;5101;49.038;8.710;2023-09-18T09:18:10;4.35;;;0.90;;
10122;SDS011;5101;49.038;8.710;2023-09-18T09:20:37;2.80;;;0.80;;
10122;SDS011;5101;49.038;8.710;2023-09-18T09:23:03;1.35;;;0.73;;
10122;SDS011;5101;49.038;8.710;2023-09-18T09:25:30;2.08;;;0.95;;
10122;SDS011;5101;49.038;8.710;2023-09-18T09:27:58;5.30;;;1.00;;
10122;SDS011;5101;49.038;8.710;2023-09-18T09:30:25;7.18;;;1.10;;
10122;SDS011;5101;49.038;8.710;2023-09-18T09:32:53;1.75;;;1.10;;
10122;SDS011;5101;49.038;8.710;2023-09-18T09:35:20;2.58;;;1.02;;
10122;SDS011;5101;49.038;8.710;2023-09-18T09:37:46;3.63;;;1.25;;
10122;SDS011;5101;49.038;8.710;2023-09-18T09:40:12;3.03;;;1.00;;
10122;SDS011;5101;49.038;8.710;2023-09-18T09:42:39;3.22;;;0.80;;
10122;SDS011;5101;49.038;8.710;2023-09-18T09:45:13;2.80;;;0.88;;
10122;SDS011;5101;49.038;8.710;2023-09-18T09:47:42;3.65;;;0.98;;
10122;SDS011;5101;49.038;8.710;2023-09-18T09:50:10;2.10;;;0.73;;
10122;SDS011;5101;49.038;8.710;2023-09-18T09:52:46;4.18;;;1.20;;
10122;SDS011;5101;49.038;8.710;2023-09-18T09:55:27;3.50;;;1.05;;
10122;SDS011;5101;49.038;8.710;2023-09-18T09:57:56;1.83;;;1.00;;
10122;SDS011;5101;49.038;8.710;2023-09-18T10:00:30;2.38;;;1.13;;
10122;SDS011;5101;49.038;8.710;2023-09-18T10:03:01;2.67;;;1.00;;
10122;SDS011;5101;49.038;8.710;2023-09-18T10:05:30;2.90;;;0.95;;
10122;SDS011;5101;49.038;8.710;2023-09-18T10:08:02;2.85;;;1.20;;
10122;SDS011;5101;49.038;8.710;2023-09-18T10:10:32;1.48;;;0.93;;
10122;SDS011;5101;49.038;8.710;2023-09-18T10:13:02;3.30;;;0.90;;
10122;SDS011;5101;49.038;8.710;2023-09-18T10:15:34;5.82;;;1.23;;
10122;SDS011;5101;49.038;8.710;2023-09-18T10:18:03;2.40;;;0.80;;
10122;SDS011;5101;49.038;8.710;2023-09-18T10:20:33;3.65;;;1.10;;
10122;SDS011;5101;49.038;8.710;2023-09-18T10:23:09;5.72;;;1.10;;
10122;SDS011;5101;49.038;8.710;2023-09-18T10:25:45;3.75;;;1.00;;
10122;SDS011;5101;49.038;8.710;2023-09-18T10:28:10;2.65;;;0.80;;
10122;SDS011;5101;49.038;8.710;2023-09-18T10:30:40;4.22;;;0.93;;
10122;SDS011;5101;49.038;8.710;2023-09-18T10:33:07;3.53;;;1.05;;
10122;SDS011;5101;49.038;8.710;2023-09-18T10:35:34;5.00;;;0.80;;
10122;SDS011;5101;49.038;8.710;2023-09-18T10:38:00;2.83;;;1.17;;
10122;SDS011;5101;49.038;8.710;2023-09-18T10:40:30;2.28;;;0.90;;
10122;SDS011;5101;49.038;8.710;2023-09-18T10:42:58;2.80;;;0.80;;
10122;SDS011;5101;49.038;8.710;2023-09-18T10:45:26;4.30;;;1.15;;
10122;SDS011;5101;49.038;8.710;2023-09-18T10:47:51;1.67;;;0.80;;
10122;SDS011;5101;49.038;8.710;2023-09-18T10:50:25;3.67;;;1.05;;
10122;SDS011;5101;49.038;8.710;2023-09-18T10:52:51;2.05;;;0.90;;
10122;SDS011;5101;49.038;8.710;2023-09-18T10:55:17;1.20;;;0.85;;
10122;SDS011;5101;49.038;8.710;2023-09-18T10:57:50;2.70;;;0.88;;
10122;SDS011;5101;49.038;8.710;2023-09-18T11:00:17;3.25;;;0.80;;
10122;SDS011;5101;49.038;8.710;2023-09-18T11:02:47;2.47;;;1.08;;
10122;SDS011;5101;49.038;8.710;2023-09-18T11:05:26;1.65;;;0.85;;
10122;SDS011;5101;49.038;8.710;2023-09-18T11:11:08;6.10;;;0.90;;
10122;SDS011;5101;49.038;8.710;2023-09-18T11:13:37;2.50;;;0.73;;
10122;SDS011;5101;49.038;8.710;2023-09-18T11:16:15;3.20;;;1.15;;
10122;SDS011;5101;49.038;8.710;2023-09-18T11:21:29;5.50;;;1.00;;
10122;SDS011;5101;49.038;8.710;2023-09-18T11:24:06;3.58;;;0.95;;
10122;SDS011;5101;49.038;8.710;2023-09-18T11:26:36;5.10;;;0.75;;
10122;SDS011;5101;49.038;8.710;2023-09-18T11:29:06;1.83;;;1.00;;
10122;SDS011;5101;49.038;8.710;2023-09-18T11:31:41;3.25;;;0.70;;
10122;SDS011;5101;49.038;8.710;2023-09-18T11:34:27;3.78;;;0.73;;
10122;SDS011;5101;49.038;8.710;2023-09-18T11:36:56;3.40;;;0.88;;
10122;SDS011;5101;49.038;8.710;2023-09-18T11:39:38;2.28;;;0.80;;
10122;SDS011;5101;49.038;8.710;2023-09-18T11:42:12;3.47;;;0.70;;
10122;SDS011;5101;49.038;8.710;2023-09-18T11:44:39;3.17;;;1.10;;
10122;SDS011;5101;49.038;8.710;2023-09-18T11:47:11;2.30;;;0.80;;
10122;SDS011;5101;49.038;8.710;2023-09-18T11:49:47;0.75;;;0.70;;
10122;SDS011;5101;49.038;8.710;2023-09-18T11:52:23;3.28;;;0.82;;
10122;SDS011;5101;49.038;8.710;2023-09-18T11:54:55;1.70;;;0.80;;
10122;SDS011;5101;49.038;8.710;2023-09-18T11:57:21;2.75;;;0.73;;
10122;SDS011;5101;49.038;8.710;2023-09-18T11:59:47;1.17;;;0.57;;
10122;SDS011;5101;49.038;8.710;2023-09-18T12:04:53;3.00;;;0.60;;
10122;SDS011;5101;49.038;8.710;2023-09-18T12:07:19;1.65;;;0.80;;
10122;SDS011;5101;49.038;8.710;2023-09-18T12:09:45;1.77;;;0.70;;
10122;SDS011;5101;49.038;8.710;2023-09-18T12:12:11;4.05;;;0.60;;
10122;SDS011;5101;49.038;8.710;2023-09-18T12:14:39;1.55;;;0.50;;
10122;SDS011;5101;49.038;8.710;2023-09-18T12:17:07;1.92;;;0.57;;
10122;SDS011;5101;49.038;8.710;2023-09-18T12:19:33;2.42;;;0.60;;
10122;SDS011;5101;49.038;8.710;2023-09-18T12:22:00;2.30;;;0.60;;
10122;SDS011;5101;49.038;8.710;2023-09-18T12:24:26;4.25;;;0.93;;
10122;SDS011;5101;49.038;8.710;2023-09-18T12:26:52;2.15;;;0.52;;
10122;SDS011;5101;49.038;8.710;2023-09-18T12:29:22;1.67;;;0.63;;
10122;SDS011;5101;49.038;8.710;2023-09-18T12:31:48;4.25;;;0.60;;
10122;SDS011;5101;49.038;8.710;2023-09-18T12:34:16;1.20;;;0.60;;
10122;SDS011;5101;49.038;8.710;2023-09-18T12:36:42;0.57;;;0.47;;
10122;SDS011;5101;49.038;8.710;2023-09-18T12:39:09;4.05;;;0.73;;
10122;SDS011;5101;49.038;8.710;2023-09-18T12:41:35;3.92;;;0.43;;
10122;SDS011;5101;49.038;8.710;2023-09-18T12:44:01;1.83;;;0.50;;
10122;SDS011;5101;49.038;8.710;2023-09-18T12:46:28;1.23;;;0.60;;
10122;SDS011;5101;49.038;8.710;2023-09-18T12:48:54;1.83;;;0.57;;
10122;SDS011;5101;49.038;8.710;2023-09-18T12:51:28;3.65;;;0.60;;
10122;SDS011;5101;49.038;8.710;2023-09-18T12:54:02;0.70;;;0.50;;
10122;SDS011;5101;49.038;8.710;2023-09-18T12:56:31;6.03;;;0.73;;
10122;SDS011;5101;49.038;8.710;2023-09-18T12:58:57;0.55;;;0.40;;
10122;SDS011;5101;49.038;8.710;2023-09-18T13:01:24;1.98;;;0.77;;
10122;SDS011;5101;49.038;8.710;2023-09-18T13:03:49;1.23;;;0.52;;
10122;SDS011;5101;49.038;8.710;2023-09-18T13:06:20;1.70;;;0.40;;
10122;SDS011;5101;49.038;8.710;2023-09-18T13:08:45;2.72;;;0.55;;
10122;SDS011;5101;49.038;8.710;2023-09-18T13:11:11;4.55;;;0.90;;
10122;SDS011;5101;49.038;8.710;2023-09-18T13:13:39;3.10;;;0.73;;
10122;SDS011;5101;49.038;8.710;2023-09-18T13:16:06;0.75;;;0.57;;
10122;SDS011;5101;49.038;8.710;2023-09-18T13:18:34;1.58;;;0.47;;
10122;SDS011;5101;49.038;8.710;2023-09-18T13:21:00;2.03;;;0.45;;
10122;SDS011;5101;49.038;8.710;2023-09-18T13:23:34;2.03;;;0.68;;
10122;SDS011;5101;49.038;8.710;2023-09-18T13:26:00;1.63;;;0.50;;
10122;SDS011;5101;49.038;8.710;2023-09-18T13:28:28;1.67;;;0.65;;
10122;SDS011;5101;49.038;8.710;2023-09-18T13:30:55;4.53;;;0.60;;
10122;SDS011;5101;49.038;8.710;2023-09-18T13:33:21;1.42;;;0.70;;
10122;SDS011;5101;49.038;8.710;2023-09-18T13:35:48;1.92;;;0.68;;
10122;SDS011;5101;49.038;8.710;2023-09-18T13:38:14;1.27;;;0.50;;
10122;SDS011;5101;49.038;8.710;2023-09-18T13:40:43;2.28;;;0.50;;
10122;SDS011;5101;49.038;8.710;2023-09-18T13:43:11;1.23;;;0.70;;
10122;SDS011;5101;49.038;8.710;2023-09-18T13:45:40;2.67;;;0.40;;
10122;SDS011;5101;49.038;8.710;2023-09-18T13:48:06;1.60;;;0.68;;
10122;SDS011;5101;49.038;8.710;2023-09-18T13:50:32;1.42;;;0.65;;
10122;SDS011;5101;49.038;8.710;2023-09-18T13:52:59;1.58;;;0.80;;
10122;SDS011;5101;49.038;8.710;2023-09-18T13:55:25;1.33;;;0.60;;
10122;SDS011;5101;49.038;8.710;2023-09-18T13:57:51;1.02;;;0.70;;
10122;SDS011;5101;49.038;8.710;2023-09-18T14:00:17;3.97;;;0.85;;
10122;SDS011;5101;49.038;8.710;2023-09-18T14:02:42;0.85;;;0.40;;
10122;SDS011;5101;49.038;8.710;2023-09-18T14:05:08;1.77;;;0.68;;
10122;SDS011;5101;49.038;8.710;2023-09-18T14:07:34;2.40;;;0.77;;
10122;SDS011;5101;49.038;8.710;2023-09-18T14:10:00;0.80;;;0.50;;
10122;SDS011;5101;49.038;8.710;2023-09-18T14:12:28;2.33;;;0.57;;
10122;SDS011;5101;49.038;8.710;2023-09-18T14:14:55;1.17;;;0.65;;
10122;SDS011;5101;49.038;8.710;2023-09-18T14:17:21;1.33;;;0.63;;
10122;SDS011;5101;49.038;8.710;2023-09-18T14:19:47;2.78;;;0.60;;
10122;SDS011;5101;49.038;8.710;2023-09-18T14:22:12;0.80;;;0.50;;
10122;SDS011;5101;49.038;8.710;2023-09-18T14:24:39;1.25;;;0.40;;
10122;SDS011;5101;49.038;8.710;2023-09-18T14:27:04;1.23;;;0.50;;
10122;SDS011;5101;49.038;8.710;2023-09-18T14:29:31;1.15;;;0.60;;
10122;SDS011;5101;49.038;8.710;2023-09-18T14:31:57;1.48;;;0.60;;
10122;SDS011;5101;49.038;8.710;2023-09-18T14:34:22;0.85;;;0.50;;
10122;SDS011;5101;49.038;8.710;2023-09-18T14:36:48;2.40;;;0.60;;
10122;SDS011;5101;49.038;8.710;2023-09-18T14:39:13;1.17;;;0.57;;
10122;SDS011;5101;49.038;8.710;2023-09-18T14:41:39;2.00;;;0.95;;
10122;SDS011;5101;49.038;8.710;2023-09-18T14:44:06;1.65;;;0.70;;
10122;SDS011;5101;49.038;8.710;2023-09-18T14:46:33;2.88;;;1.00;;
10122;SDS011;5101;49.038;8.710;2023-09-18T14:49:00;2.08;;;0.60;;
10122;SDS011;5101;49.038;8.710;2023-09-18T14:51:26;3.60;;;0.80;;
10122;SDS011;5101;49.038;8.710;2023-09-18T14:53:55;1.52;;;0.70;;
10122;SDS011;5101;49.038;8.710;2023-09-18T14:56:22;2.63;;;0.75;;
10122;SDS011;5101;49.038;8.710;2023-09-18T14:58:48;2.40;;;0.60;;
10122;SDS011;5101;49.038;8.710;2023-09-18T15:01:15;1.05;;;0.60;;
10122;SDS011;5101;49.038;8.710;2023-09-18T15:03:40;2.20;;;0.73;;
10122;SDS011;5101;49.038;8.710;2023-09-18T15:06:06;7.10;;;0.80;;
10122;SDS011;5101;49.038;8.710;2023-09-18T15:08:33;3.05;;;0.70;;
10122;SDS011;5101;49.038;8.710;2023-09-18T15:10:59;1.33;;;0.60;;
10122;SDS011;5101;49.038;8.710;2023-09-18T15:13:25;1.60;;;0.60;;